Time;durP1;ratioP1;P1;durP2;ratioP2;P2;SDS_P1;SDS_P2;PMS_P1;PMS_P2;Temp;Humidity;BMP_temperature;BMP_pressure;BME280_temperature;BME280_humidity;BME280_pressure;Samples;Min_cycle;Max_cycle;Signal;HPM_P1;HPM_P2
2021/05/16 00:05:49;;;;;;;10.93;5.97;;;;;;;11.24;83.40;98057.50;3875950;90;21072;-84
2021/05/16 00:11:51;;;;;;;10.90;7.28;;;;;;;11.18;83.36;98068.11;3875647;90;21992;-84
2021/05/16 00:17:54;;;;;;;10.68;7.22;;;;;;;11.13;83.40;98062.44;3867870;90;21103;-84
2021/05/16 00:23:55;;;;;;;7.40;5.78;;;;;;;11.13;83.34;98065.00;3876641;90;21098;-84
2021/05/16 00:29:56;;;;;;;14.07;7.67;;;;;;;11.12;83.83;98057.97;3866142;90;21108;-83
2021/05/16 00:35:57;;;;;;;12.53;7.28;;;;;;;11.24;83.84;98060.23;3873865;90;21115;-84
2021/05/16 00:41:59;;;;;;;11.10;7.35;;;;;;;11.25;83.47;98061.78;3884637;90;21619;-83
2021/05/16 00:48:10;;;;;;;9.98;7.50;;;;;;;11.05;83.66;98054.10;3856345;91;21132;-84
2021/05/16 00:54:11;;;;;;;12.58;8.35;;;;;;;10.98;83.97;98043.75;3871323;88;21220;-85
2021/05/16 01:00:21;;;;;;;11.95;7.17;;;;;;;10.88;84.06;98033.66;3895738;90;21098;-84
2021/05/16 01:06:24;;;;;;;14.07;6.90;;;;;;;10.93;84.43;98031.88;3849185;91;21121;-84
2021/05/16 01:12:32;;;;;;;12.50;7.25;;;;;;;10.89;84.33;98007.25;3965081;87;21615;-85
2021/05/16 01:18:31;;;;;;;13.30;7.87;;;;;;;10.96;84.52;98007.19;3955660;89;21075;-85
2021/05/16 01:24:43;;;;;;;10.08;6.87;;;;;;;10.84;84.39;98019.19;3885412;90;21062;-84
2021/05/16 01:30:44;;;;;;;9.15;6.55;;;;;;;10.78;84.36;98018.84;3884045;90;21114;-84
2021/05/16 01:36:46;;;;;;;14.33;7.45;;;;;;;10.87;84.71;98022.50;3847817;91;21138;-85
2021/05/16 01:42:53;;;;;;;13.05;7.20;;;;;;;10.99;84.47;98024.19;3868924;91;21077;-85
2021/05/16 01:48:55;;;;;;;10.23;6.95;;;;;;;10.92;84.23;98017.98;3849639;91;21096;-85
2021/05/16 01:54:57;;;;;;;10.68;6.70;;;;;;;10.86;84.33;98018.21;3848703;86;21697;-84
2021/05/16 02:00:59;;;;;;;7.90;6.05;;;;;;;10.71;84.19;98012.63;3953795;88;21049;-84
2021/05/16 02:07:03;;;;;;;8.68;6.83;;;;;;;10.66;84.48;98015.78;3940091;88;21119;-84
2021/05/16 02:13:07;;;;;;;10.10;6.17;;;;;;;10.65;84.57;98014.20;3876548;91;21133;-84
2021/05/16 02:19:11;;;;;;;10.32;7.17;;;;;;;10.68;84.87;98018.30;3840352;91;21092;-84
2021/05/16 02:25:14;;;;;;;9.73;6.50;;;;;;;10.63;84.71;98017.34;3860794;91;21096;-84
2021/05/16 02:31:19;;;;;;;12.70;8.18;;;;;;;10.67;84.69;98017.33;3838962;91;21135;-84
2021/05/16 02:37:26;;;;;;;9.83;6.95;;;;;;;10.58;85.02;98011.52;3986815;88;21609;-84
2021/05/16 02:43:29;;;;;;;14.25;6.72;;;;;;;10.60;85.20;98014.64;3882878;90;21629;-84
2021/05/16 02:49:31;;;;;;;9.63;6.37;;;;;;;10.74;85.54;98013.20;3961403;89;21147;-84
2021/05/16 02:55:33;;;;;;;7.92;5.83;;;;;;;10.86;85.42;98020.95;3959652;88;21633;-84
2021/05/16 03:01:35;;;;;;;9.95;5.87;;;;;;;10.84;85.52;98013.14;3881990;91;21101;-85
2021/05/16 03:07:45;;;;;;;17.00;6.53;;;;;;;10.79;85.44;98011.42;3975177;88;21109;-85
2021/05/16 03:13:46;;;;;;;10.10;5.40;;;;;;;10.80;85.83;98017.86;3878657;90;21179;-85
2021/05/16 03:19:57;;;;;;;10.88;6.25;;;;;;;10.78;85.93;98009.27;3964040;88;21119;-84
2021/05/16 03:26:04;;;;;;;7.95;6.03;;;;;;;11.00;85.94;98005.22;3946412;88;21672;-85
2021/05/16 03:32:05;;;;;;;8.98;6.05;;;;;;;10.96;85.76;98007.80;3873957;90;21681;-84
2021/05/16 03:38:13;;;;;;;6.95;5.25;;;;;;;10.95;86.14;98007.01;3970110;88;21730;-85
2021/05/16 03:44:16;;;;;;;9.35;5.65;;;;;;;11.08;86.04;98010.06;3974593;88;21076;-85
2021/05/16 03:50:17;;;;;;;9.33;6.20;;;;;;;11.03;85.97;98014.59;3971746;88;21131;-85
2021/05/16 03:56:19;;;;;;;7.08;5.28;;;;;;;11.05;86.38;98007.55;3983461;87;21101;-85
2021/05/16 04:02:20;;;;;;;12.43;6.58;;;;;;;11.06;86.24;97991.88;4020011;87;21149;-85
2021/05/16 04:08:21;;;;;;;9.95;6.53;;;;;;;11.16;86.70;97995.72;3994818;87;21077;-85
2021/05/16 04:14:24;;;;;;;9.25;6.60;;;;;;;11.27;86.47;98006.80;3992802;87;21687;-85
2021/05/16 04:20:25;;;;;;;11.03;6.12;;;;;;;11.40;86.65;98007.85;3994067;87;21280;-85
2021/05/16 04:26:27;;;;;;;9.73;5.25;;;;;;;11.48;86.59;98015.45;3903608;89;21144;-84
2021/05/16 04:32:36;;;;;;;8.30;7.08;;;;;;;11.64;86.27;98004.17;3904391;89;21191;-85
2021/05/16 04:38:37;;;;;;;9.43;7.05;;;;;;;11.82;86.21;98008.12;3973455;88;21127;-85
2021/05/16 04:44:38;;;;;;;8.35;6.35;;;;;;;11.81;86.19;97996.95;3970250;88;21078;-85
2021/05/16 04:50:40;;;;;;;12.75;6.20;;;;;;;11.96;85.94;97999.76;3896781;89;21081;-85
2021/05/16 04:56:41;;;;;;;8.63;6.12;;;;;;;12.15;85.80;97999.16;3903724;89;21688;-84
2021/05/16 05:02:45;;;;;;;7.67;5.37;;;;;;;12.32;85.64;97993.45;3874276;90;21138;-85
2021/05/16 05:08:45;;;;;;;9.10;4.95;;;;;;;12.50;85.44;97987.17;3859270;90;21077;-85
2021/05/16 05:14:47;;;;;;;9.10;5.30;;;;;;;12.71;85.26;97984.75;3839110;91;21199;-85
2021/05/16 05:20:49;;;;;;;11.18;5.47;;;;;;;12.91;85.15;97978.77;3846824;91;21069;-85
2021/05/16 05:26:51;;;;;;;13.72;4.92;;;;;;;13.08;85.17;97986.59;3949979;88;21610;-85
2021/05/16 05:32:53;;;;;;;9.10;6.60;;;;;;;12.96;85.04;97994.80;3875147;90;21114;-85
2021/05/16 05:38:57;;;;;;;8.78;6.62;;;;;;;12.97;85.06;97992.22;3856147;91;21088;-85
2021/05/16 05:45:03;;;;;;;11.00;6.05;;;;;;;13.19;85.30;97992.71;3833248;91;22352;-85
2021/05/16 05:51:07;;;;;;;10.90;5.00;;;;;;;13.49;85.92;97999.50;3834177;91;21116;-85
2021/05/16 05:57:08;;;;;;;10.30;5.17;;;;;;;13.59;85.63;98002.07;3853644;91;21143;-85
2021/05/16 06:03:09;;;;;;;8.75;4.95;;;;;;;13.77;85.61;97999.02;3850755;91;21085;-86
2021/05/16 06:09:12;;;;;;;6.97;4.87;;;;;;;13.88;85.16;97994.11;3835454;91;21689;-85
2021/05/16 06:15:14;;;;;;;6.53;4.53;;;;;;;13.91;85.17;98002.31;3834770;91;21160;-86
2021/05/16 06:21:16;;;;;;;8.83;4.50;;;;;;;14.02;85.07;97998.77;3836315;91;21664;-85
2021/05/16 06:27:17;;;;;;;6.85;4.42;;;;;;;14.11;85.05;98000.95;3838457;91;21156;-85
2021/05/16 06:33:19;;;;;;;5.55;3.80;;;;;;;14.19;85.01;98001.00;3833572;91;21101;-85
2021/05/16 06:39:21;;;;;;;6.55;3.17;;;;;;;14.16;85.03;97999.09;3832960;91;21672;-85
2021/05/16 06:45:23;;;;;;;4.97;2.80;;;;;;;14.22;85.23;97997.41;3836861;91;21165;-85
2021/05/16 06:51:25;;;;;;;4.80;2.92;;;;;;;14.29;84.73;98001.44;3830496;90;21604;-85
2021/05/16 06:57:26;;;;;;;3.98;2.60;;;;;;;14.41;84.45;98003.55;3834687;91;21236;-81
2021/05/16 07:03:27;;;;;;;2.62;1.80;;;;;;;14.62;85.02;98009.23;3838336;91;21120;-83
2021/05/16 07:09:29;;;;;;;2.80;1.90;;;;;;;14.80;84.63;98002.77;3833635;91;21128;-82
2021/05/16 07:15:30;;;;;;;5.90;2.00;;;;;;;14.86;83.92;97998.30;3835814;91;21113;-83
2021/05/16 07:21:31;;;;;;;2.15;1.60;;;;;;;14.81;84.09;98003.72;3833338;91;21068;-84
2021/05/16 07:27:33;;;;;;;2.30;2.00;;;;;;;14.89;83.95;98002.34;3834907;91;21117;-84
2021/05/16 07:33:34;;;;;;;3.10;2.00;;;;;;;14.89;83.29;97990.56;3833957;91;21089;-83
2021/05/16 07:39:36;;;;;;;6.00;2.85;;;;;;;14.94;83.98;97989.44;3834095;91;21105;-83
2021/05/16 07:45:37;;;;;;;4.17;2.27;;;;;;;15.02;83.83;97992.80;3831818;91;21144;-83
2021/05/16 07:51:39;;;;;;;3.83;2.33;;;;;;;15.10;83.37;97991.44;3835773;91;21181;-83
2021/05/16 07:57:40;;;;;;;4.70;2.42;;;;;;;14.99;83.11;98003.31;3833143;91;21645;-83
2021/05/16 08:03:41;;;;;;;7.80;2.10;;;;;;;15.08;83.41;98000.77;3834935;91;21093;-84
2021/05/16 08:09:44;;;;;;;4.50;2.20;;;;;;;15.17;83.33;98003.11;3833020;91;21148;-85
2021/05/16 08:15:45;;;;;;;4.90;2.90;;;;;;;15.23;82.87;98011.63;3835188;91;21136;-84
2021/05/16 08:21:47;;;;;;;2.60;2.02;;;;;;;15.20;82.89;98016.03;3834564;91;21124;-84
2021/05/16 08:27:51;;;;;;;4.92;2.25;;;;;;;15.06;82.99;98014.98;3832290;91;21207;-83
2021/05/16 08:33:51;;;;;;;5.17;2.10;;;;;;;14.78;82.61;98017.56;3834012;91;21080;-85
2021/05/16 08:39:53;;;;;;;3.22;1.65;;;;;;;14.70;82.91;98032.68;3835843;91;21140;-86
2021/05/16 08:45:54;;;;;;;5.97;2.10;;;;;;;14.57;82.57;98041.39;3833922;91;21700;-84
2021/05/16 08:51:56;;;;;;;3.72;2.40;;;;;;;14.48;82.88;98040.59;3833557;91;21113;-84
2021/05/16 08:57:57;;;;;;;3.75;1.60;;;;;;;14.49;83.01;98055.13;3838297;91;21412;-84
2021/05/16 09:04:19;;;;;;;5.87;2.08;;;;;;;14.47;82.85;98064.42;3871162;90;21203;-84
2021/05/16 09:10:25;;;;;;;2.45;1.70;;;;;;;14.47;82.88;98058.92;3869742;90;21755;-85
2021/05/16 09:16:26;;;;;;;2.15;1.25;;;;;;;14.34;83.00;98071.16;3870153;90;22072;-84
2021/05/16 09:22:49;;;;;;;3.37;1.55;;;;;;;14.42;82.89;98069.83;3868044;90;21420;-86
2021/05/16 09:28:50;;;;;;;6.28;2.12;;;;;;;14.70;83.06;98074.78;3951958;88;21126;-84
2021/05/16 09:34:52;;;;;;;3.27;0.90;;;;;;;14.95;83.36;98075.65;3906579;89;22618;-85
2021/05/16 09:40:58;;;;;;;2.40;1.50;;;;;;;15.17;82.95;98074.00;3871459;90;21204;-84
2021/05/16 09:47:17;;;;;;;1.90;1.20;;;;;;;15.38;82.99;98073.54;3872800;90;21180;-85
2021/05/16 09:53:19;;;;;;;2.45;1.62;;;;;;;15.42;82.61;98079.17;3870786;89;22057;-85
2021/05/16 09:59:21;;;;;;;2.20;1.15;;;;;;;15.34;82.61;98075.58;3868680;90;21207;-84
2021/05/16 10:05:22;;;;;;;2.37;1.55;;;;;;;15.16;82.13;98070.45;3870975;90;21119;-84
2021/05/16 10:11:32;;;;;;;2.35;1.80;;;;;;;15.23;82.03;98077.20;3870230;90;21188;-85
2021/05/16 10:17:36;;;;;;;3.10;1.35;;;;;;;15.25;81.92;98076.78;3945166;87;21117;-83
2021/05/16 10:23:40;;;;;;;3.58;1.62;;;;;;;15.35;81.95;98075.75;3992527;87;21056;-84
2021/05/16 10:29:52;;;;;;;3.47;1.82;;;;;;;15.36;81.94;98070.42;3972950;88;21082;-84
2021/05/16 10:35:54;;;;;;;1.92;1.22;;;;;;;15.53;82.63;98072.78;3974112;88;21155;-84
2021/05/16 10:42:23;;;;;;;4.65;1.05;;;;;;;15.76;82.55;98066.34;3909918;89;21204;-85
2021/05/16 10:48:34;;;;;;;2.50;1.02;;;;;;;16.17;82.42;98071.23;3994300;87;21145;-84
2021/05/16 10:54:35;;;;;;;1.67;0.82;;;;;;;16.50;81.54;98070.78;4005343;87;21062;-84
2021/05/16 11:00:42;;;;;;;5.28;1.10;;;;;;;16.86;81.20;98056.73;3970955;88;21142;-84
2021/05/16 11:06:49;;;;;;;2.80;1.25;;;;;;;17.09;80.84;98059.21;3953813;88;21095;-84
2021/05/16 11:12:51;;;;;;;1.45;0.90;;;;;;;17.06;79.90;98061.48;3875834;90;21078;-85
2021/05/16 11:18:52;;;;;;;2.00;0.68;;;;;;;16.95;79.66;98060.41;3840380;91;21089;-84
2021/05/16 11:24:53;;;;;;;4.20;0.90;;;;;;;16.88;79.01;98057.08;3840151;91;22178;-85
2021/05/16 11:30:56;;;;;;;4.12;1.05;;;;;;;16.94;79.08;98054.70;3840452;91;21140;-84
2021/05/16 11:37:17;;;;;;;3.22;1.02;;;;;;;16.67;78.83;98044.64;3951382;89;21119;-84
2021/05/16 11:43:28;;;;;;;2.02;0.85;;;;;;;16.54;79.16;98044.41;3949858;89;21646;-84
2021/05/16 11:49:32;;;;;;;2.83;1.22;;;;;;;16.71;78.92;98045.30;3878313;90;22475;-84
2021/05/16 11:55:34;;;;;;;1.20;0.88;;;;;;;16.69;78.70;98041.44;3840327;91;21112;-84
2021/05/16 12:01:39;;;;;;;1.82;0.82;;;;;;;16.65;78.38;98045.67;3854138;91;22112;-84
2021/05/16 12:07:41;;;;;;;3.72;1.00;;;;;;;16.64;78.36;98044.73;3862268;90;21710;-85
2021/05/16 12:13:42;;;;;;;5.28;1.22;;;;;;;16.50;78.20;98039.61;3934220;88;21602;-83
2021/05/16 12:19:43;;;;;;;1.87;1.30;;;;;;;16.46;77.98;98042.45;3972836;88;21083;-83
2021/05/16 12:25:45;;;;;;;2.35;1.37;;;;;;;16.26;77.52;98036.87;3971784;88;21618;-84
2021/05/16 12:31:47;;;;;;;2.02;1.17;;;;;;;16.37;77.33;98028.48;3973160;88;21772;-87
2021/05/16 12:37:52;;;;;;;5.25;1.40;;;;;;;16.34;77.49;98047.30;3901038;89;21416;-83
2021/05/16 12:44:12;;;;;;;3.92;1.12;;;;;;;15.91;77.56;98054.36;3870691;90;21141;-84
2021/05/16 12:50:13;;;;;;;4.05;1.02;;;;;;;15.51;77.39;98050.98;3869968;90;21092;-84
2021/05/16 12:56:23;;;;;;;3.08;1.22;;;;;;;14.96;77.84;98050.42;3868540;90;21124;-83
2021/05/16 13:02:28;;;;;;;4.12;1.30;;;;;;;14.54;78.42;98042.25;3873169;90;21219;-85
2021/05/16 13:08:38;;;;;;;3.55;1.47;;;;;;;14.39;78.47;98032.72;3869346;90;21159;-84
2021/05/16 13:14:39;;;;;;;3.47;1.70;;;;;;;14.45;78.26;98038.70;3870388;90;21112;-82
2021/05/16 13:20:41;;;;;;;3.87;1.55;;;;;;;14.70;79.15;98044.48;3872350;90;21691;-83
2021/05/16 13:26:50;;;;;;;2.83;1.30;;;;;;;15.08;79.05;98045.62;3860856;90;21754;-83
2021/05/16 13:32:49;;;;;;;3.22;1.57;;;;;;;15.28;78.90;98043.63;3870739;90;21128;-83
2021/05/16 13:38:51;;;;;;;2.22;1.30;;;;;;;15.48;79.51;98044.36;3855414;90;21141;-83
2021/05/16 13:44:55;;;;;;;2.98;1.20;;;;;;;15.77;79.26;98046.44;3871760;90;21064;-83
2021/05/16 13:50:55;;;;;;;4.75;1.50;;;;;;;16.05;78.90;98042.37;3998697;87;21098;-84
2021/05/16 13:57:01;;;;;;;5.60;1.30;;;;;;;15.96;79.17;98040.80;3969647;88;21122;-83
2021/05/16 14:03:03;;;;;;;2.85;1.25;;;;;;;15.91;78.81;98042.70;3874603;90;21138;-83
2021/05/16 14:09:10;;;;;;;5.33;1.70;;;;;;;16.05;79.20;98038.83;3937642;88;21157;-84
2021/05/16 14:15:12;;;;;;;1.47;0.98;;;;;;;15.93;78.12;98038.91;3865990;90;22461;-85
2021/05/16 14:21:14;;;;;;;2.35;1.10;;;;;;;15.91;78.04;98040.56;3932238;88;21699;-85
2021/05/16 14:27:16;;;;;;;4.05;1.07;;;;;;;15.75;78.23;98037.81;3928284;88;21177;-83
2021/05/16 14:33:18;;;;;;;4.12;0.98;;;;;;;15.68;77.48;98031.09;3937217;88;21151;-84
2021/05/16 14:39:20;;;;;;;3.05;1.50;;;;;;;15.65;78.15;98032.13;3939108;88;21050;-84
2021/05/16 14:45:21;;;;;;;1.90;1.25;;;;;;;15.79;78.46;98028.23;3936888;88;21204;-84
2021/05/16 14:51:27;;;;;;;3.40;1.37;;;;;;;15.93;78.07;98027.11;3867318;90;21683;-84
2021/05/16 14:57:29;;;;;;;14.23;1.57;;;;;;;16.04;78.40;98028.38;3937622;87;21258;-83
2021/05/16 15:03:30;;;;;;;6.37;1.87;;;;;;;15.91;78.08;98026.14;3883593;90;21225;-85
2021/05/16 15:09:32;;;;;;;3.47;1.40;;;;;;;15.99;78.02;98023.38;3993415;87;21704;-83
2021/05/16 15:15:34;;;;;;;6.70;1.60;;;;;;;16.05;77.37;98016.14;3993069;87;21209;-83
2021/05/16 15:21:37;;;;;;;3.72;1.75;;;;;;;16.29;77.66;98007.00;3994305;87;21198;-83
2021/05/16 15:27:38;;;;;;;3.62;1.72;;;;;;;16.49;77.40;98010.44;3992325;87;21475;-84
2021/05/16 15:33:42;;;;;;;4.28;2.02;;;;;;;16.51;77.36;98006.02;3996061;87;21125;-83
2021/05/16 15:39:43;;;;;;;3.98;1.80;;;;;;;16.52;76.35;98007.55;3991223;87;21116;-84
2021/05/16 15:45:45;;;;;;;5.03;1.80;;;;;;;16.36;75.54;97999.91;3914431;89;21573;-86
2021/05/16 15:51:46;;;;;;;6.50;2.20;;;;;;;16.21;75.16;97990.48;3901234;89;21405;-85
2021/05/16 15:57:48;;;;;;;5.92;2.35;;;;;;;16.14;74.88;97989.28;3995653;87;21116;-83
2021/05/16 16:03:52;;;;;;;3.40;2.00;;;;;;;16.06;74.59;97979.63;3914375;89;22470;-86
2021/05/16 16:09:53;;;;;;;4.08;2.05;;;;;;;15.91;74.29;97977.84;3853634;89;21116;-85
2021/05/16 16:15:55;;;;;;;2.67;2.02;;;;;;;15.84;74.00;97980.02;3972804;87;21129;-84
2021/05/16 16:21:56;;;;;;;3.22;2.22;;;;;;;15.77;73.91;97971.94;3973266;88;21102;-85
2021/05/16 16:27:58;;;;;;;3.83;2.40;;;;;;;15.66;72.30;97970.21;3973555;88;21102;-84
2021/05/16 16:33:59;;;;;;;2.75;2.17;;;;;;;15.59;72.07;97967.65;3971975;88;21918;-84
2021/05/16 16:40:00;;;;;;;3.50;2.02;;;;;;;15.58;72.02;97969.45;3865170;85;9999847;-83
2021/05/16 16:46:02;;;;;;;5.33;2.00;;;;;;;15.57;72.51;97959.61;3975108;87;21137;-85
2021/05/16 16:52:04;;;;;;;2.33;1.52;;;;;;;15.66;72.42;97962.53;3973287;88;21093;-84
2021/05/16 16:58:07;;;;;;;4.08;1.52;;;;;;;15.67;72.27;97961.34;3974644;88;21119;-85
2021/05/16 17:04:09;;;;;;;5.72;1.95;;;;;;;15.66;71.66;97959.77;3960033;88;21082;-83
2021/05/16 17:10:17;;;;;;;4.42;2.00;;;;;;;15.55;71.47;97960.05;3945716;88;21650;-83
2021/05/16 17:16:19;;;;;;;4.92;2.15;;;;;;;15.41;72.08;97958.27;3874696;90;21109;-84
2021/05/16 17:22:23;;;;;;;4.30;1.82;;;;;;;15.35;72.21;97963.48;3851860;91;21141;-84
2021/05/16 17:28:25;;;;;;;3.80;1.87;;;;;;;15.17;72.05;97960.97;3851492;91;22073;-84
2021/05/16 17:34:26;;;;;;;3.83;2.17;;;;;;;15.06;72.29;97959.06;3827970;91;22463;-85
2021/05/16 17:40:28;;;;;;;9.35;2.47;;;;;;;14.92;72.50;97962.94;3992501;87;21999;-84
2021/05/16 17:46:30;;;;;;;3.80;2.45;;;;;;;14.82;72.92;97965.31;3883504;89;21141;-84
2021/05/16 17:52:31;;;;;;;4.83;2.80;;;;;;;14.72;73.14;97972.44;3830235;91;21124;-83
2021/05/16 17:58:33;;;;;;;8.00;3.50;;;;;;;14.64;73.47;97973.79;3847427;91;21393;-83
2021/05/16 18:04:34;;;;;;;6.30;2.80;;;;;;;14.60;73.60;97966.97;3848884;91;21142;-84
2021/05/16 18:10:36;;;;;;;7.65;4.40;;;;;;;14.45;73.95;97964.34;3731733;90;10000324;-83
2021/05/16 18:16:38;;;;;;;4.87;3.50;;;;;;;14.30;74.14;97964.44;3835491;90;21169;-86
2021/05/16 18:22:39;;;;;;;6.05;3.40;;;;;;;14.12;74.65;97954.36;3833872;91;21632;-83
2021/05/16 18:28:42;;;;;;;11.43;4.15;;;;;;;13.98;75.06;97961.52;3833654;91;21231;-85
2021/05/16 18:34:43;;;;;;;7.00;4.10;;;;;;;13.85;75.47;97960.57;3837946;91;21131;-83
2021/05/16 18:40:44;;;;;;;5.75;2.92;;;;;;;13.66;75.79;97959.34;3829839;90;21154;-83
2021/05/16 18:46:46;;;;;;;8.58;3.12;;;;;;;13.49;76.29;97965.14;3832671;91;21113;-83
2021/05/16 18:52:47;;;;;;;4.72;2.98;;;;;;;13.31;77.54;97968.78;3832921;91;21239;-83
2021/05/16 18:58:49;;;;;;;7.53;2.92;;;;;;;13.21;78.55;97969.72;3830898;91;21935;-83
2021/05/16 19:04:50;;;;;;;3.70;2.62;;;;;;;13.13;78.43;97967.69;3856227;90;21100;-83
2021/05/16 19:10:52;;;;;;;5.15;3.35;;;;;;;13.09;79.20;97966.94;3950205;88;21078;-83
2021/05/16 19:16:53;;;;;;;6.08;4.05;;;;;;;13.07;79.80;97963.07;3950770;88;21155;-83
2021/05/16 19:22:54;;;;;;;8.50;3.50;;;;;;;13.06;80.95;97962.90;3878028;90;21146;-82
2021/05/16 19:28:55;;;;;;;5.87;3.75;;;;;;;13.09;81.66;97977.17;3842054;91;21145;-85
2021/05/16 19:34:57;;;;;;;4.08;2.75;;;;;;;13.05;81.58;97978.59;3842230;91;21656;-83
2021/05/16 19:40:58;;;;;;;4.10;2.95;;;;;;;13.00;81.17;97985.92;3948386;88;21708;-86
2021/05/16 19:47:00;;;;;;;7.78;2.70;;;;;;;12.91;80.67;98004.08;3951155;88;21068;-83
2021/05/16 19:53:01;;;;;;;6.40;3.50;;;;;;;12.77;80.51;98011.14;3949253;88;21287;-83
2021/05/16 19:59:03;;;;;;;7.33;4.62;;;;;;;12.50;81.12;98024.23;3954711;88;21166;-82
2021/05/16 20:05:06;;;;;;;9.53;5.08;;;;;;;12.54;82.15;98017.33;3958157;88;21132;-83
2021/05/16 20:11:08;;;;;;;6.08;3.42;;;;;;;12.48;82.03;98014.86;3875806;90;21181;-84
2021/05/16 20:17:10;;;;;;;7.15;3.92;;;;;;;12.47;82.21;98001.72;3842539;90;21100;-82
2021/05/16 20:23:11;;;;;;;10.58;4.08;;;;;;;12.43;81.73;98005.70;3952894;88;21110;-82
2021/05/16 20:29:15;;;;;;;6.45;3.80;;;;;;;12.31;81.48;98013.86;3956127;88;21248;-82
2021/05/16 20:35:21;;;;;;;6.40;3.72;;;;;;;12.19;81.59;98027.33;3950792;88;21134;-83
2021/05/16 20:41:23;;;;;;;7.67;3.70;;;;;;;12.10;81.43;98026.45;3942036;88;21111;-82
2021/05/16 20:47:25;;;;;;;6.35;4.03;;;;;;;11.96;81.64;98034.04;3873317;90;21072;-82
2021/05/16 20:53:26;;;;;;;10.63;4.90;;;;;;;11.88;81.67;98023.73;3844143;91;21089;-84
2021/05/16 20:59:27;;;;;;;7.00;4.55;;;;;;;11.67;81.68;98033.51;3847134;91;21088;-83
2021/05/16 21:05:31;;;;;;;16.40;4.65;;;;;;;11.59;81.56;98034.72;3852902;91;21236;-82
2021/05/16 21:11:33;;;;;;;6.33;3.80;;;;;;;11.33;81.58;98042.17;3817226;91;21779;-82
2021/05/16 21:17:35;;;;;;;6.72;3.83;;;;;;;11.07;81.70;98038.64;3833798;91;21085;-82
2021/05/16 21:23:37;;;;;;;6.70;4.05;;;;;;;10.82;81.69;98037.39;3850921;91;21179;-83
2021/05/16 21:29:38;;;;;;;6.72;4.45;;;;;;;10.67;81.92;98033.75;3856767;91;21148;-82
2021/05/16 21:35:39;;;;;;;7.62;3.90;;;;;;;10.49;82.01;98032.45;3876838;90;21683;-82
2021/05/16 21:41:41;;;;;;;11.15;4.92;;;;;;;10.29;82.16;98032.72;3841604;91;21073;-82
2021/05/16 21:47:42;;;;;;;7.37;4.53;;;;;;;10.19;82.47;98036.28;3834911;91;21129;-81
2021/05/16 21:53:45;;;;;;;11.93;5.78;;;;;;;10.11;82.30;98043.52;3834190;91;21778;-81
2021/05/16 21:59:48;;;;;;;11.10;6.37;;;;;;;9.98;82.54;98035.50;3833659;91;21657;-83
2021/05/16 22:05:49;;;;;;;11.05;6.55;;;;;;;9.72;82.21;98029.90;3841901;91;21238;-83
2021/05/16 22:11:51;;;;;;;11.20;6.60;;;;;;;9.58;82.65;98033.40;3866951;91;21721;-82
2021/05/16 22:17:55;;;;;;;13.62;6.65;;;;;;;9.71;83.46;98043.95;3865517;90;21117;-81
2021/05/16 22:23:57;;;;;;;11.10;7.60;;;;;;;9.90;83.14;98050.38;3866200;91;21233;-82
2021/05/16 22:29:58;;;;;;;12.30;6.30;;;;;;;9.85;83.34;98046.06;3865304;91;21106;-82
2021/05/16 22:36:00;;;;;;;14.53;7.60;;;;;;;9.69;82.44;98048.45;3864323;91;21499;-82
2021/05/16 22:42:01;;;;;;;14.65;9.15;;;;;;;9.68;83.21;98052.94;3866286;91;21170;-81
2021/05/16 22:48:04;;;;;;;15.95;9.38;;;;;;;9.52;82.70;98051.96;3973150;88;21128;-82
2021/05/16 22:54:06;;;;;;;12.47;8.05;;;;;;;9.29;83.08;98047.44;3974952;88;21149;-82
2021/05/16 23:00:18;;;;;;;10.43;5.97;;;;;;;9.13;82.90;98038.25;3972502;88;21111;-84
2021/05/16 23:06:19;;;;;;;12.75;7.40;;;;;;;8.89;82.77;98036.85;3875919;90;21158;-82
2021/05/16 23:12:21;;;;;;;12.80;7.42;;;;;;;8.81;83.20;98041.52;3833585;91;21085;-81
2021/05/16 23:18:24;;;;;;;12.28;5.35;;;;;;;8.75;83.61;98036.81;3853340;91;21208;-81
2021/05/16 23:24:26;;;;;;;12.13;6.12;;;;;;;8.76;83.95;98041.09;3876711;90;21116;-81
2021/05/16 23:30:28;;;;;;;12.88;7.53;;;;;;;8.68;83.38;98026.66;3842327;90;21397;-84
2021/05/16 23:36:30;;;;;;;11.65;6.85;;;;;;;8.61;83.55;98018.47;3842499;91;21631;-81
2021/05/16 23:42:32;;;;;;;13.55;5.87;;;;;;;8.46;83.70;98005.13;3841307;91;21121;-81
2021/05/16 23:48:36;;;;;;;11.25;6.60;;;;;;;8.29;83.60;97997.09;3841691;91;21550;-80
2021/05/16 23:54:38;;;;;;;12.25;5.90;;;;;;;8.21;83.60;97993.31;3842440;91;21145;-81
